sensor_id;sensor_type;location;lat;lon;timestamp;P1;durP1;ratioP1;P2;durP2;ratioP2
37065;SDS011;22981;43.080;25.550;2024-01-25T00:01:07;93.52;;;58.02;;
37065;SDS011;22981;43.080;25.550;2024-01-25T00:03:35;90.28;;;56.58;;
37065;SDS011;22981;43.080;25.550;2024-01-25T00:06:04;82.45;;;56.60;;
37065;SDS011;22981;43.080;25.550;2024-01-25T00:08:36;83.07;;;52.73;;
37065;SDS011;22981;43.080;25.550;2024-01-25T00:11:04;73.25;;;45.88;;
37065;SDS011;22981;43.080;25.550;2024-01-25T00:13:32;61.88;;;42.88;;
37065;SDS011;22981;43.080;25.550;2024-01-25T00:16:00;59.63;;;41.40;;
37065;SDS011;22981;43.080;25.550;2024-01-25T00:18:28;54.30;;;39.98;;
37065;SDS011;22981;43.080;25.550;2024-01-25T00:20:55;59.30;;;38.67;;
37065;SDS011;22981;43.080;25.550;2024-01-25T00:23:23;55.67;;;38.70;;
37065;SDS011;22981;43.080;25.550;2024-01-25T00:25:50;72.17;;;47.30;;
37065;SDS011;22981;43.080;25.550;2024-01-25T00:28:18;62.95;;;44.25;;
37065;SDS011;22981;43.080;25.550;2024-01-25T00:30:46;58.40;;;39.83;;
37065;SDS011;22981;43.080;25.550;2024-01-25T00:33:13;57.30;;;39.63;;
37065;SDS011;22981;43.080;25.550;2024-01-25T00:35:41;93.12;;;59.40;;
37065;SDS011;22981;43.080;25.550;2024-01-25T00:38:09;81.08;;;54.67;;
37065;SDS011;22981;43.080;25.550;2024-01-25T00:40:36;78.57;;;52.53;;
37065;SDS011;22981;43.080;25.550;2024-01-25T00:43:04;84.47;;;55.55;;
37065;SDS011;22981;43.080;25.550;2024-01-25T00:45:32;93.78;;;57.78;;
37065;SDS011;22981;43.080;25.550;2024-01-25T00:48:00;80.38;;;51.50;;
37065;SDS011;22981;43.080;25.550;2024-01-25T00:50:28;87.15;;;53.85;;
37065;SDS011;22981;43.080;25.550;2024-01-25T00:52:56;93.42;;;56.68;;
37065;SDS011;22981;43.080;25.550;2024-01-25T00:55:23;98.85;;;57.33;;
37065;SDS011;22981;43.080;25.550;2024-01-25T00:57:51;70.92;;;45.23;;
37065;SDS011;22981;43.080;25.550;2024-01-25T01:00:20;56.28;;;38.10;;
37065;SDS011;22981;43.080;25.550;2024-01-25T01:02:48;55.83;;;35.88;;
37065;SDS011;22981;43.080;25.550;2024-01-25T01:05:16;52.62;;;35.80;;
37065;SDS011;22981;43.080;25.550;2024-01-25T01:07:43;124.40;;;72.42;;
37065;SDS011;22981;43.080;25.550;2024-01-25T01:10:11;112.72;;;69.72;;
37065;SDS011;22981;43.080;25.550;2024-01-25T01:12:39;119.13;;;73.92;;
37065;SDS011;22981;43.080;25.550;2024-01-25T01:15:07;103.38;;;64.85;;
37065;SDS011;22981;43.080;25.550;2024-01-25T01:17:35;104.45;;;69.90;;
37065;SDS011;22981;43.080;25.550;2024-01-25T01:20:03;86.72;;;58.45;;
37065;SDS011;22981;43.080;25.550;2024-01-25T01:22:30;86.80;;;59.42;;
37065;SDS011;22981;43.080;25.550;2024-01-25T01:24:58;88.78;;;57.93;;
37065;SDS011;22981;43.080;25.550;2024-01-25T01:27:25;80.25;;;55.03;;
37065;SDS011;22981;43.080;25.550;2024-01-25T01:29:53;82.53;;;53.55;;
37065;SDS011;22981;43.080;25.550;2024-01-25T01:32:21;74.47;;;49.27;;
37065;SDS011;22981;43.080;25.550;2024-01-25T01:34:48;71.05;;;47.25;;
37065;SDS011;22981;43.080;25.550;2024-01-25T01:37:16;69.90;;;47.30;;
37065;SDS011;22981;43.080;25.550;2024-01-25T01:39:43;79.87;;;54.00;;
37065;SDS011;22981;43.080;25.550;2024-01-25T01:42:11;83.25;;;55.35;;
37065;SDS011;22981;43.080;25.550;2024-01-25T01:44:38;82.37;;;53.00;;
37065;SDS011;22981;43.080;25.550;2024-01-25T01:47:06;87.05;;;55.23;;
37065;SDS011;22981;43.080;25.550;2024-01-25T01:49:34;73.57;;;50.33;;
37065;SDS011;22981;43.080;25.550;2024-01-25T01:52:02;70.75;;;46.18;;
37065;SDS011;22981;43.080;25.550;2024-01-25T01:54:30;66.50;;;45.05;;
37065;SDS011;22981;43.080;25.550;2024-01-25T01:56:58;63.08;;;43.02;;
37065;SDS011;22981;43.080;25.550;2024-01-25T01:59:26;61.92;;;41.48;;
37065;SDS011;22981;43.080;25.550;2024-01-25T02:01:54;55.98;;;39.08;;
37065;SDS011;22981;43.080;25.550;2024-01-25T02:04:22;55.80;;;37.00;;
37065;SDS011;22981;43.080;25.550;2024-01-25T02:06:49;50.75;;;35.75;;
37065;SDS011;22981;43.080;25.550;2024-01-25T02:09:17;51.55;;;34.30;;
37065;SDS011;22981;43.080;25.550;2024-01-25T02:11:45;68.75;;;47.00;;
37065;SDS011;22981;43.080;25.550;2024-01-25T02:14:12;70.05;;;45.58;;
37065;SDS011;22981;43.080;25.550;2024-01-25T02:16:40;84.30;;;50.25;;
37065;SDS011;22981;43.080;25.550;2024-01-25T02:19:09;89.20;;;56.70;;
37065;SDS011;22981;43.080;25.550;2024-01-25T02:21:37;83.52;;;49.88;;
37065;SDS011;22981;43.080;25.550;2024-01-25T02:24:05;71.07;;;45.30;;
37065;SDS011;22981;43.080;25.550;2024-01-25T02:26:32;61.48;;;42.67;;
37065;SDS011;22981;43.080;25.550;2024-01-25T02:29:00;57.67;;;39.15;;
37065;SDS011;22981;43.080;25.550;2024-01-25T02:31:30;58.42;;;36.63;;
37065;SDS011;22981;43.080;25.550;2024-01-25T02:33:57;55.35;;;36.98;;
37065;SDS011;22981;43.080;25.550;2024-01-25T02:36:25;50.67;;;34.58;;
37065;SDS011;22981;43.080;25.550;2024-01-25T02:38:52;49.25;;;34.38;;
37065;SDS011;22981;43.080;25.550;2024-01-25T02:41:20;45.65;;;30.40;;
37065;SDS011;22981;43.080;25.550;2024-01-25T02:43:47;51.70;;;33.83;;
37065;SDS011;22981;43.080;25.550;2024-01-25T02:46:15;50.38;;;31.85;;
37065;SDS011;22981;43.080;25.550;2024-01-25T02:48:43;42.08;;;29.20;;
37065;SDS011;22981;43.080;25.550;2024-01-25T02:51:10;43.20;;;28.70;;
37065;SDS011;22981;43.080;25.550;2024-01-25T02:53:38;56.13;;;37.80;;
37065;SDS011;22981;43.080;25.550;2024-01-25T02:56:06;58.63;;;38.23;;
37065;SDS011;22981;43.080;25.550;2024-01-25T02:58:33;49.18;;;34.33;;
37065;SDS011;22981;43.080;25.550;2024-01-25T03:01:01;41.02;;;28.20;;
37065;SDS011;22981;43.080;25.550;2024-01-25T03:03:28;53.58;;;36.93;;
37065;SDS011;22981;43.080;25.550;2024-01-25T03:05:57;68.83;;;46.77;;
37065;SDS011;22981;43.080;25.550;2024-01-25T03:08:25;76.62;;;48.70;;
37065;SDS011;22981;43.080;25.550;2024-01-25T03:10:52;75.00;;;46.77;;
37065;SDS011;22981;43.080;25.550;2024-01-25T03:13:20;110.10;;;63.78;;
37065;SDS011;22981;43.080;25.550;2024-01-25T03:15:48;104.40;;;60.33;;
37065;SDS011;22981;43.080;25.550;2024-01-25T03:18:15;84.32;;;49.25;;
37065;SDS011;22981;43.080;25.550;2024-01-25T03:20:43;76.00;;;44.95;;
37065;SDS011;22981;43.080;25.550;2024-01-25T03:23:10;50.90;;;33.98;;
37065;SDS011;22981;43.080;25.550;2024-01-25T03:25:38;48.30;;;31.20;;
37065;SDS011;22981;43.080;25.550;2024-01-25T03:28:05;40.12;;;27.40;;
37065;SDS011;22981;43.080;25.550;2024-01-25T03:30:34;39.27;;;27.05;;
37065;SDS011;22981;43.080;25.550;2024-01-25T03:33:02;41.33;;;27.40;;
37065;SDS011;22981;43.080;25.550;2024-01-25T03:35:30;41.55;;;28.23;;
37065;SDS011;22981;43.080;25.550;2024-01-25T03:37:57;36.80;;;26.90;;
37065;SDS011;22981;43.080;25.550;2024-01-25T03:40:25;7.62;;;5.87;;
37065;SDS011;22981;43.080;25.550;2024-01-25T03:42:52;3.37;;;2.08;;
37065;SDS011;22981;43.080;25.550;2024-01-25T03:45:20;2.58;;;1.20;;
37065;SDS011;22981;43.080;25.550;2024-01-25T03:47:47;3.27;;;1.40;;
37065;SDS011;22981;43.080;25.550;2024-01-25T03:50:15;1.20;;;1.10;;
37065;SDS011;22981;43.080;25.550;2024-01-25T03:52:42;2.35;;;1.30;;
37065;SDS011;22981;43.080;25.550;2024-01-25T03:55:10;3.50;;;1.10;;
37065;SDS011;22981;43.080;25.550;2024-01-25T03:57:37;2.12;;;1.70;;
37065;SDS011;22981;43.080;25.550;2024-01-25T04:00:06;2.47;;;1.40;;
37065;SDS011;22981;43.080;25.550;2024-01-25T04:02:34;3.35;;;1.50;;
37065;SDS011;22981;43.080;25.550;2024-01-25T04:05:02;2.12;;;1.22;;
37065;SDS011;22981;43.080;25.550;2024-01-25T04:07:30;3.17;;;1.50;;
37065;SDS011;22981;43.080;25.550;2024-01-25T04:09:58;2.58;;;0.95;;
37065;SDS011;22981;43.080;25.550;2024-01-25T04:12:25;2.58;;;1.40;;
37065;SDS011;22981;43.080;25.550;2024-01-25T04:14:53;2.60;;;0.93;;
37065;SDS011;22981;43.080;25.550;2024-01-25T04:17:20;2.35;;;1.12;;
37065;SDS011;22981;43.080;25.550;2024-01-25T04:19:48;5.50;;;1.17;;
37065;SDS011;22981;43.080;25.550;2024-01-25T04:22:15;1.55;;;1.25;;
37065;SDS011;22981;43.080;25.550;2024-01-25T04:24:43;4.75;;;1.40;;
37065;SDS011;22981;43.080;25.550;2024-01-25T04:27:12;2.02;;;1.27;;
37065;SDS011;22981;43.080;25.550;2024-01-25T04:29:40;1.77;;;1.30;;
37065;SDS011;22981;43.080;25.550;2024-01-25T04:32:07;1.12;;;1.00;;
37065;SDS011;22981;43.080;25.550;2024-01-25T04:34:35;3.25;;;1.17;;
37065;SDS011;22981;43.080;25.550;2024-01-25T04:37:03;2.08;;;1.60;;
37065;SDS011;22981;43.080;25.550;2024-01-25T04:39:31;4.03;;;1.80;;
37065;SDS011;22981;43.080;25.550;2024-01-25T04:41:58;2.87;;;1.30;;
37065;SDS011;22981;43.080;25.550;2024-01-25T04:44:26;2.30;;;1.40;;
37065;SDS011;22981;43.080;25.550;2024-01-25T04:46:53;1.67;;;1.30;;
37065;SDS011;22981;43.080;25.550;2024-01-25T04:49:22;3.85;;;1.80;;
37065;SDS011;22981;43.080;25.550;2024-01-25T04:51:50;3.00;;;1.60;;
37065;SDS011;22981;43.080;25.550;2024-01-25T04:54:17;2.60;;;1.90;;
37065;SDS011;22981;43.080;25.550;2024-01-25T04:56:45;2.55;;;1.80;;
37065;SDS011;22981;43.080;25.550;2024-01-25T04:59:12;3.22;;;1.67;;
37065;SDS011;22981;43.080;25.550;2024-01-25T05:01:40;2.12;;;1.60;;
37065;SDS011;22981;43.080;25.550;2024-01-25T05:04:07;1.70;;;1.40;;
37065;SDS011;22981;43.080;25.550;2024-01-25T05:06:35;5.45;;;2.80;;
37065;SDS011;22981;43.080;25.550;2024-01-25T05:09:02;3.30;;;1.45;;
37065;SDS011;22981;43.080;25.550;2024-01-25T05:11:30;2.83;;;1.77;;
37065;SDS011;22981;43.080;25.550;2024-01-25T05:13:58;3.65;;;2.00;;
37065;SDS011;22981;43.080;25.550;2024-01-25T05:16:25;4.17;;;1.62;;
37065;SDS011;22981;43.080;25.550;2024-01-25T05:18:53;2.52;;;1.62;;
37065;SDS011;22981;43.080;25.550;2024-01-25T05:21:20;3.58;;;1.72;;
37065;SDS011;22981;43.080;25.550;2024-01-25T05:23:48;3.33;;;1.80;;
37065;SDS011;22981;43.080;25.550;2024-01-25T05:26:15;3.58;;;1.72;;
37065;SDS011;22981;43.080;25.550;2024-01-25T05:28:44;3.05;;;2.00;;
37065;SDS011;22981;43.080;25.550;2024-01-25T05:31:12;2.67;;;1.80;;
37065;SDS011;22981;43.080;25.550;2024-01-25T05:33:39;4.47;;;2.10;;
37065;SDS011;22981;43.080;25.550;2024-01-25T05:36:07;4.70;;;1.80;;
37065;SDS011;22981;43.080;25.550;2024-01-25T05:38:35;3.27;;;2.17;;
37065;SDS011;22981;43.080;25.550;2024-01-25T05:41:03;4.08;;;2.17;;
37065;SDS011;22981;43.080;25.550;2024-01-25T05:43:30;4.92;;;2.10;;
37065;SDS011;22981;43.080;25.550;2024-01-25T05:45:58;3.25;;;1.85;;
37065;SDS011;22981;43.080;25.550;2024-01-25T05:48:26;4.25;;;1.80;;
37065;SDS011;22981;43.080;25.550;2024-01-25T05:50:53;5.67;;;2.05;;
37065;SDS011;22981;43.080;25.550;2024-01-25T05:53:21;3.25;;;1.82;;
37065;SDS011;22981;43.080;25.550;2024-01-25T05:55:48;3.22;;;2.10;;
37065;SDS011;22981;43.080;25.550;2024-01-25T05:58:16;5.55;;;1.92;;
37065;SDS011;22981;43.080;25.550;2024-01-25T06:00:44;4.03;;;2.00;;
37065;SDS011;22981;43.080;25.550;2024-01-25T06:03:11;5.87;;;2.35;;
37065;SDS011;22981;43.080;25.550;2024-01-25T06:05:39;5.85;;;2.20;;
37065;SDS011;22981;43.080;25.550;2024-01-25T06:08:07;5.95;;;2.52;;
37065;SDS011;22981;43.080;25.550;2024-01-25T06:10:34;5.90;;;3.15;;
37065;SDS011;22981;43.080;25.550;2024-01-25T06:13:02;4.03;;;2.27;;
37065;SDS011;22981;43.080;25.550;2024-01-25T06:15:29;5.25;;;2.37;;
37065;SDS011;22981;43.080;25.550;2024-01-25T06:17:57;5.55;;;2.30;;
37065;SDS011;22981;43.080;25.550;2024-01-25T06:20:24;3.95;;;1.98;;
37065;SDS011;22981;43.080;25.550;2024-01-25T06:22:52;7.30;;;2.70;;
37065;SDS011;22981;43.080;25.550;2024-01-25T06:25:20;7.17;;;2.52;;
37065;SDS011;22981;43.080;25.550;2024-01-25T06:27:48;4.10;;;2.22;;
37065;SDS011;22981;43.080;25.550;2024-01-25T06:30:15;3.50;;;2.35;;
37065;SDS011;22981;43.080;25.550;2024-01-25T06:32:44;3.62;;;2.20;;
37065;SDS011;22981;43.080;25.550;2024-01-25T06:35:12;4.00;;;2.40;;
37065;SDS011;22981;43.080;25.550;2024-01-25T06:37:41;5.12;;;2.15;;
37065;SDS011;22981;43.080;25.550;2024-01-25T06:40:08;7.12;;;2.22;;
37065;SDS011;22981;43.080;25.550;2024-01-25T06:42:36;6.37;;;2.47;;
37065;SDS011;22981;43.080;25.550;2024-01-25T06:45:04;5.83;;;3.25;;
37065;SDS011;22981;43.080;25.550;2024-01-25T06:47:31;6.03;;;2.60;;
37065;SDS011;22981;43.080;25.550;2024-01-25T06:49:59;12.98;;;2.60;;
37065;SDS011;22981;43.080;25.550;2024-01-25T06:52:26;8.83;;;6.15;;
37065;SDS011;22981;43.080;25.550;2024-01-25T06:54:54;9.35;;;7.12;;
37065;SDS011;22981;43.080;25.550;2024-01-25T06:57:22;6.75;;;5.45;;
37065;SDS011;22981;43.080;25.550;2024-01-25T06:59:49;7.45;;;5.25;;
37065;SDS011;22981;43.080;25.550;2024-01-25T07:02:17;7.47;;;4.62;;
37065;SDS011;22981;43.080;25.550;2024-01-25T07:04:44;16.45;;;10.98;;
37065;SDS011;22981;43.080;25.550;2024-01-25T07:07:14;7.03;;;4.72;;
37065;SDS011;22981;43.080;25.550;2024-01-25T07:09:41;7.10;;;4.72;;
37065;SDS011;22981;43.080;25.550;2024-01-25T07:12:08;4.90;;;3.75;;
37065;SDS011;22981;43.080;25.550;2024-01-25T07:14:36;7.35;;;4.58;;
37065;SDS011;22981;43.080;25.550;2024-01-25T07:17:04;7.40;;;4.90;;
37065;SDS011;22981;43.080;25.550;2024-01-25T07:19:31;6.40;;;3.60;;
37065;SDS011;22981;43.080;25.550;2024-01-25T07:21:59;6.30;;;3.00;;
37065;SDS011;22981;43.080;25.550;2024-01-25T07:24:26;6.28;;;2.58;;
37065;SDS011;22981;43.080;25.550;2024-01-25T07:26:54;5.40;;;2.55;;
37065;SDS011;22981;43.080;25.550;2024-01-25T07:29:21;4.37;;;2.15;;
37065;SDS011;22981;43.080;25.550;2024-01-25T07:31:49;5.85;;;2.83;;
37065;SDS011;22981;43.080;25.550;2024-01-25T07:34:16;5.92;;;3.05;;
37065;SDS011;22981;43.080;25.550;2024-01-25T07:36:44;4.75;;;2.08;;
37065;SDS011;22981;43.080;25.550;2024-01-25T07:39:11;5.20;;;2.50;;
37065;SDS011;22981;43.080;25.550;2024-01-25T07:41:39;4.67;;;2.12;;
37065;SDS011;22981;43.080;25.550;2024-01-25T07:44:07;6.00;;;2.40;;
37065;SDS011;22981;43.080;25.550;2024-01-25T07:46:34;4.95;;;2.33;;
37065;SDS011;22981;43.080;25.550;2024-01-25T07:49:02;7.62;;;3.00;;
37065;SDS011;22981;43.080;25.550;2024-01-25T07:51:29;6.10;;;3.37;;
37065;SDS011;22981;43.080;25.550;2024-01-25T07:53:57;8.90;;;4.92;;
37065;SDS011;22981;43.080;25.550;2024-01-25T07:56:25;8.60;;;4.70;;
37065;SDS011;22981;43.080;25.550;2024-01-25T07:58:52;7.40;;;4.22;;
37065;SDS011;22981;43.080;25.550;2024-01-25T08:01:20;12.30;;;10.32;;
37065;SDS011;22981;43.080;25.550;2024-01-25T08:03:47;7.28;;;3.10;;
37065;SDS011;22981;43.080;25.550;2024-01-25T08:06:15;6.08;;;3.80;;
37065;SDS011;22981;43.080;25.550;2024-01-25T08:08:42;10.38;;;3.67;;
37065;SDS011;22981;43.080;25.550;2024-01-25T08:11:10;5.97;;;2.35;;
37065;SDS011;22981;43.080;25.550;2024-01-25T08:13:37;6.22;;;3.02;;
37065;SDS011;22981;43.080;25.550;2024-01-25T08:16:08;8.43;;;3.25;;
37065;SDS011;22981;43.080;25.550;2024-01-25T08:18:36;7.20;;;3.35;;
37065;SDS011;22981;43.080;25.550;2024-01-25T08:21:04;6.67;;;3.08;;
37065;SDS011;22981;43.080;25.550;2024-01-25T08:25:57;9.55;;;4.08;;
37065;SDS011;22981;43.080;25.550;2024-01-25T08:28:25;8.28;;;3.37;;
37065;SDS011;22981;43.080;25.550;2024-01-25T08:30:52;13.58;;;6.47;;
37065;SDS011;22981;43.080;25.550;2024-01-25T08:33:21;12.10;;;6.35;;
37065;SDS011;22981;43.080;25.550;2024-01-25T08:35:50;6.85;;;3.15;;
37065;SDS011;22981;43.080;25.550;2024-01-25T08:38:18;7.58;;;5.33;;
37065;SDS011;22981;43.080;25.550;2024-01-25T08:40:46;7.78;;;3.58;;
37065;SDS011;22981;43.080;25.550;2024-01-25T08:43:13;11.28;;;3.25;;
37065;SDS011;22981;43.080;25.550;2024-01-25T08:45:41;14.98;;;3.58;;
37065;SDS011;22981;43.080;25.550;2024-01-25T08:48:10;7.53;;;2.75;;
37065;SDS011;22981;43.080;25.550;2024-01-25T08:50:39;9.55;;;3.90;;
37065;SDS011;22981;43.080;25.550;2024-01-25T08:53:06;7.53;;;3.75;;
37065;SDS011;22981;43.080;25.550;2024-01-25T08:55:35;10.60;;;3.42;;
37065;SDS011;22981;43.080;25.550;2024-01-25T08:58:02;8.88;;;3.70;;
37065;SDS011;22981;43.080;25.550;2024-01-25T09:00:30;10.53;;;3.02;;
37065;SDS011;22981;43.080;25.550;2024-01-25T09:02:58;8.38;;;3.20;;
37065;SDS011;22981;43.080;25.550;2024-01-25T09:05:25;10.00;;;3.05;;
37065;SDS011;22981;43.080;25.550;2024-01-25T09:07:54;8.85;;;2.85;;
37065;SDS011;22981;43.080;25.550;2024-01-25T09:10:21;10.70;;;3.45;;
37065;SDS011;22981;43.080;25.550;2024-01-25T09:12:49;8.93;;;3.47;;
37065;SDS011;22981;43.080;25.550;2024-01-25T09:15:16;9.45;;;3.47;;
37065;SDS011;22981;43.080;25.550;2024-01-25T09:17:44;9.55;;;3.90;;
37065;SDS011;22981;43.080;25.550;2024-01-25T09:20:11;11.55;;;3.75;;
37065;SDS011;22981;43.080;25.550;2024-01-25T09:22:39;7.70;;;3.00;;
37065;SDS011;22981;43.080;25.550;2024-01-25T09:25:07;8.30;;;3.65;;
37065;SDS011;22981;43.080;25.550;2024-01-25T09:27:34;10.85;;;3.08;;
37065;SDS011;22981;43.080;25.550;2024-01-25T09:30:04;9.05;;;3.17;;
37065;SDS011;22981;43.080;25.550;2024-01-25T09:32:33;8.40;;;3.77;;
37065;SDS011;22981;43.080;25.550;2024-01-25T09:35:00;9.08;;;3.58;;
37065;SDS011;22981;43.080;25.550;2024-01-25T09:37:28;6.92;;;3.20;;
37065;SDS011;22981;43.080;25.550;2024-01-25T09:39:55;9.53;;;3.92;;
37065;SDS011;22981;43.080;25.550;2024-01-25T09:42:25;7.70;;;3.62;;
37065;SDS011;22981;43.080;25.550;2024-01-25T09:44:54;9.10;;;3.02;;
37065;SDS011;22981;43.080;25.550;2024-01-25T09:47:21;8.43;;;4.37;;
37065;SDS011;22981;43.080;25.550;2024-01-25T09:49:49;8.08;;;3.30;;
37065;SDS011;22981;43.080;25.550;2024-01-25T09:52:17;8.53;;;3.17;;
37065;SDS011;22981;43.080;25.550;2024-01-25T09:54:49;8.13;;;3.25;;
37065;SDS011;22981;43.080;25.550;2024-01-25T09:57:21;8.35;;;3.20;;
37065;SDS011;22981;43.080;25.550;2024-01-25T09:59:52;9.00;;;2.47;;
37065;SDS011;22981;43.080;25.550;2024-01-25T10:02:23;7.65;;;3.25;;
37065;SDS011;22981;43.080;25.550;2024-01-25T10:04:51;10.28;;;3.70;;
37065;SDS011;22981;43.080;25.550;2024-01-25T10:10:06;10.50;;;3.75;;
37065;SDS011;22981;43.080;25.550;2024-01-25T10:12:34;8.80;;;3.40;;
37065;SDS011;22981;43.080;25.550;2024-01-25T10:15:03;10.08;;;3.70;;
37065;SDS011;22981;43.080;25.550;2024-01-25T10:17:31;9.88;;;3.85;;
37065;SDS011;22981;43.080;25.550;2024-01-25T10:19:59;11.50;;;3.37;;
37065;SDS011;22981;43.080;25.550;2024-01-25T10:22:27;10.75;;;3.50;;
37065;SDS011;22981;43.080;25.550;2024-01-25T10:24:54;10.82;;;5.20;;
37065;SDS011;22981;43.080;25.550;2024-01-25T10:27:22;12.73;;;3.33;;
37065;SDS011;22981;43.080;25.550;2024-01-25T10:29:49;10.45;;;4.00;;
37065;SDS011;22981;43.080;25.550;2024-01-25T10:32:17;7.58;;;4.03;;
37065;SDS011;22981;43.080;25.550;2024-01-25T10:34:45;11.75;;;4.58;;
37065;SDS011;22981;43.080;25.550;2024-01-25T10:37:14;12.33;;;4.17;;
37065;SDS011;22981;43.080;25.550;2024-01-25T10:39:42;8.48;;;3.47;;
37065;SDS011;22981;43.080;25.550;2024-01-25T10:42:12;9.78;;;4.17;;
37065;SDS011;22981;43.080;25.550;2024-01-25T10:44:40;13.88;;;4.50;;
37065;SDS011;22981;43.080;25.550;2024-01-25T10:47:08;10.65;;;3.77;;
37065;SDS011;22981;43.080;25.550;2024-01-25T10:49:35;8.90;;;3.45;;
37065;SDS011;22981;43.080;25.550;2024-01-25T10:52:04;10.28;;;4.40;;
37065;SDS011;22981;43.080;25.550;2024-01-25T10:54:33;6.15;;;3.15;;
37065;SDS011;22981;43.080;25.550;2024-01-25T10:57:01;10.10;;;3.75;;
37065;SDS011;22981;43.080;25.550;2024-01-25T10:59:30;12.30;;;3.58;;
37065;SDS011;22981;43.080;25.550;2024-01-25T11:01:58;7.42;;;3.27;;
37065;SDS011;22981;43.080;25.550;2024-01-25T11:04:29;9.43;;;3.45;;
37065;SDS011;22981;43.080;25.550;2024-01-25T11:07:04;12.35;;;3.70;;
37065;SDS011;22981;43.080;25.550;2024-01-25T11:09:35;9.08;;;3.20;;
37065;SDS011;22981;43.080;25.550;2024-01-25T11:12:10;10.08;;;3.47;;
37065;SDS011;22981;43.080;25.550;2024-01-25T11:14:36;8.98;;;3.22;;
37065;SDS011;22981;43.080;25.550;2024-01-25T11:17:24;10.72;;;3.70;;
37065;SDS011;22981;43.080;25.550;2024-01-25T11:19:49;10.48;;;3.02;;
37065;SDS011;22981;43.080;25.550;2024-01-25T11:22:17;7.58;;;3.08;;
37065;SDS011;22981;43.080;25.550;2024-01-25T11:24:45;8.30;;;3.10;;
37065;SDS011;22981;43.080;25.550;2024-01-25T11:27:14;8.50;;;3.15;;
37065;SDS011;22981;43.080;25.550;2024-01-25T11:29:42;11.68;;;3.33;;
37065;SDS011;22981;43.080;25.550;2024-01-25T11:32:09;10.50;;;3.25;;
37065;SDS011;22981;43.080;25.550;2024-01-25T11:34:38;8.23;;;3.17;;
37065;SDS011;22981;43.080;25.550;2024-01-25T11:37:06;9.13;;;2.85;;
37065;SDS011;22981;43.080;25.550;2024-01-25T11:39:34;8.65;;;3.05;;
37065;SDS011;22981;43.080;25.550;2024-01-25T11:42:01;13.30;;;3.35;;
37065;SDS011;22981;43.080;25.550;2024-01-25T11:44:29;10.75;;;3.50;;
37065;SDS011;22981;43.080;25.550;2024-01-25T11:46:57;8.68;;;3.58;;
37065;SDS011;22981;43.080;25.550;2024-01-25T11:49:24;8.75;;;3.10;;
37065;SDS011;22981;43.080;25.550;2024-01-25T11:51:52;9.65;;;3.02;;
37065;SDS011;22981;43.080;25.550;2024-01-25T11:54:20;7.75;;;3.02;;
37065;SDS011;22981;43.080;25.550;2024-01-25T11:56:47;8.78;;;3.62;;
37065;SDS011;22981;43.080;25.550;2024-01-25T11:59:15;15.20;;;7.67;;
37065;SDS011;22981;43.080;25.550;2024-01-25T12:01:43;12.58;;;6.85;;
37065;SDS011;22981;43.080;25.550;2024-01-25T12:04:11;10.50;;;4.10;;
37065;SDS011;22981;43.080;25.550;2024-01-25T12:06:39;8.13;;;3.85;;
37065;SDS011;22981;43.080;25.550;2024-01-25T12:09:07;9.75;;;3.20;;
37065;SDS011;22981;43.080;25.550;2024-01-25T12:11:39;8.38;;;2.77;;
37065;SDS011;22981;43.080;25.550;2024-01-25T12:14:09;8.45;;;2.70;;
37065;SDS011;22981;43.080;25.550;2024-01-25T12:16:37;7.53;;;2.80;;
37065;SDS011;22981;43.080;25.550;2024-01-25T12:19:04;9.23;;;2.75;;
37065;SDS011;22981;43.080;25.550;2024-01-25T12:21:35;10.30;;;3.22;;
37065;SDS011;22981;43.080;25.550;2024-01-25T12:24:02;7.67;;;2.92;;
37065;SDS011;22981;43.080;25.550;2024-01-25T12:26:35;8.83;;;2.92;;
37065;SDS011;22981;43.080;25.550;2024-01-25T12:29:03;8.98;;;3.58;;
37065;SDS011;22981;43.080;25.550;2024-01-25T12:31:30;11.78;;;3.60;;
37065;SDS011;22981;43.080;25.550;2024-01-25T12:33:58;8.70;;;3.85;;
37065;SDS011;22981;43.080;25.550;2024-01-25T12:36:29;8.70;;;3.33;;
37065;SDS011;22981;43.080;25.550;2024-01-25T12:38:58;10.35;;;2.92;;
37065;SDS011;22981;43.080;25.550;2024-01-25T12:41:26;10.90;;;3.50;;
37065;SDS011;22981;43.080;25.550;2024-01-25T12:43:53;6.47;;;2.67;;
37065;SDS011;22981;43.080;25.550;2024-01-25T12:46:21;7.80;;;2.90;;
37065;SDS011;22981;43.080;25.550;2024-01-25T12:48:48;9.38;;;3.77;;
37065;SDS011;22981;43.080;25.550;2024-01-25T12:51:18;11.88;;;3.22;;
37065;SDS011;22981;43.080;25.550;2024-01-25T12:53:45;7.60;;;3.25;;
37065;SDS011;22981;43.080;25.550;2024-01-25T12:56:14;10.78;;;3.62;;
37065;SDS011;22981;43.080;25.550;2024-01-25T12:58:42;8.63;;;3.10;;
37065;SDS011;22981;43.080;25.550;2024-01-25T13:01:09;11.35;;;4.45;;
37065;SDS011;22981;43.080;25.550;2024-01-25T13:03:37;11.00;;;3.60;;
37065;SDS011;22981;43.080;25.550;2024-01-25T13:06:05;8.95;;;3.52;;
37065;SDS011;22981;43.080;25.550;2024-01-25T13:08:32;7.20;;;3.17;;
37065;SDS011;22981;43.080;25.550;2024-01-25T13:11:00;9.38;;;3.77;;
37065;SDS011;22981;43.080;25.550;2024-01-25T13:13:28;10.70;;;3.80;;
37065;SDS011;22981;43.080;25.550;2024-01-25T13:15:55;6.37;;;3.22;;
37065;SDS011;22981;43.080;25.550;2024-01-25T13:18:25;12.13;;;3.42;;
37065;SDS011;22981;43.080;25.550;2024-01-25T13:20:52;12.23;;;3.12;;
37065;SDS011;22981;43.080;25.550;2024-01-25T13:23:20;7.22;;;2.55;;
37065;SDS011;22981;43.080;25.550;2024-01-25T13:25:47;9.55;;;3.20;;
37065;SDS011;22981;43.080;25.550;2024-01-25T13:28:15;10.45;;;3.00;;
37065;SDS011;22981;43.080;25.550;2024-01-25T13:30:43;7.35;;;3.20;;
37065;SDS011;22981;43.080;25.550;2024-01-25T13:33:10;7.75;;;2.95;;
37065;SDS011;22981;43.080;25.550;2024-01-25T13:35:38;9.75;;;3.20;;
37065;SDS011;22981;43.080;25.550;2024-01-25T13:38:05;9.03;;;3.40;;
37065;SDS011;22981;43.080;25.550;2024-01-25T13:40:33;8.25;;;2.90;;
37065;SDS011;22981;43.080;25.550;2024-01-25T13:43:00;9.80;;;2.62;;
37065;SDS011;22981;43.080;25.550;2024-01-25T13:45:28;10.30;;;2.90;;
37065;SDS011;22981;43.080;25.550;2024-01-25T13:47:55;12.75;;;3.95;;
37065;SDS011;22981;43.080;25.550;2024-01-25T13:50:23;11.08;;;3.00;;
37065;SDS011;22981;43.080;25.550;2024-01-25T13:52:51;6.65;;;2.72;;
37065;SDS011;22981;43.080;25.550;2024-01-25T13:55:18;8.90;;;2.77;;
37065;SDS011;22981;43.080;25.550;2024-01-25T13:57:46;9.53;;;2.98;;
37065;SDS011;22981;43.080;25.550;2024-01-25T14:00:14;8.90;;;2.90;;
37065;SDS011;22981;43.080;25.550;2024-01-25T14:02:42;6.87;;;2.37;;
37065;SDS011;22981;43.080;25.550;2024-01-25T14:05:11;9.65;;;3.70;;
37065;SDS011;22981;43.080;25.550;2024-01-25T14:07:38;12.10;;;3.30;;
37065;SDS011;22981;43.080;25.550;2024-01-25T14:10:08;6.72;;;2.37;;
37065;SDS011;22981;43.080;25.550;2024-01-25T14:12:35;10.43;;;3.45;;
37065;SDS011;22981;43.080;25.550;2024-01-25T14:15:03;12.35;;;3.20;;
37065;SDS011;22981;43.080;25.550;2024-01-25T14:17:31;10.10;;;3.27;;
37065;SDS011;22981;43.080;25.550;2024-01-25T14:20:00;10.32;;;3.77;;
37065;SDS011;22981;43.080;25.550;2024-01-25T14:22:30;38.98;;;22.22;;
37065;SDS011;22981;43.080;25.550;2024-01-25T14:24:57;36.68;;;27.95;;
37065;SDS011;22981;43.080;25.550;2024-01-25T14:27:25;9.23;;;4.10;;
37065;SDS011;22981;43.080;25.550;2024-01-25T14:29:53;8.88;;;3.35;;
37065;SDS011;22981;43.080;25.550;2024-01-25T14:32:20;16.02;;;7.85;;
37065;SDS011;22981;43.080;25.550;2024-01-25T14:34:48;26.37;;;13.18;;